sensor_id;sensor_type;location;lat;lon;timestamp;P1;durP1;ratioP1;P2;durP2;ratioP2
31686;SDS011;18285;51.330;4.946;2022-11-23T00:16:56;3.42;;;0.95;;
31686;SDS011;18285;51.330;4.946;2022-11-23T00:41:08;1.88;;;0.88;;
31686;SDS011;18285;51.330;4.946;2022-11-23T01:05:23;3.67;;;1.15;;
31686;SDS011;18285;51.330;4.946;2022-11-23T01:29:34;1.08;;;0.73;;
31686;SDS011;18285;51.330;4.946;2022-11-23T01:53:45;4.78;;;0.98;;
31686;SDS011;18285;51.330;4.946;2022-11-23T02:17:58;5.55;;;1.00;;
31686;SDS011;18285;51.330;4.946;2022-11-23T02:42:11;4.43;;;1.00;;
31686;SDS011;18285;51.330;4.946;2022-11-23T03:06:21;2.90;;;0.90;;
31686;SDS011;18285;51.330;4.946;2022-11-23T03:30:32;2.97;;;1.00;;
31686;SDS011;18285;51.330;4.946;2022-11-23T03:54:43;2.22;;;0.90;;
31686;SDS011;18285;51.330;4.946;2022-11-23T04:18:54;2.05;;;1.00;;
31686;SDS011;18285;51.330;4.946;2022-11-23T04:43:04;1.98;;;0.90;;
31686;SDS011;18285;51.330;4.946;2022-11-23T05:07:15;3.13;;;0.98;;
31686;SDS011;18285;51.330;4.946;2022-11-23T05:31:26;2.38;;;1.13;;
31686;SDS011;18285;51.330;4.946;2022-11-23T05:55:37;2.15;;;1.10;;
31686;SDS011;18285;51.330;4.946;2022-11-23T06:19:48;4.72;;;1.38;;
31686;SDS011;18285;51.330;4.946;2022-11-23T06:43:59;9.60;;;2.53;;
31686;SDS011;18285;51.330;4.946;2022-11-23T07:32:20;7.07;;;2.30;;
31686;SDS011;18285;51.330;4.946;2022-11-23T07:56:31;9.43;;;2.90;;
31686;SDS011;18285;51.330;4.946;2022-11-23T08:20:41;7.20;;;2.50;;
31686;SDS011;18285;51.330;4.946;2022-11-23T08:44:52;6.27;;;2.53;;
31686;SDS011;18285;51.330;4.946;2022-11-23T09:09:03;9.57;;;2.53;;
31686;SDS011;18285;51.330;4.946;2022-11-23T09:33:13;10.53;;;2.63;;
31686;SDS011;18285;51.330;4.946;2022-11-23T09:57:25;6.43;;;2.07;;
31686;SDS011;18285;51.330;4.946;2022-11-23T14:26:20;3.53;;;1.17;;
31686;SDS011;18285;51.330;4.946;2022-11-23T14:50:46;7.13;;;1.20;;
31686;SDS011;18285;51.330;4.946;2022-11-23T15:39:29;4.78;;;1.30;;
31686;SDS011;18285;51.330;4.946;2022-11-23T16:03:40;4.80;;;1.37;;
31686;SDS011;18285;51.330;4.946;2022-11-23T16:28:04;8.10;;;2.72;;
31686;SDS011;18285;51.330;4.946;2022-11-23T16:52:23;11.95;;;5.05;;
31686;SDS011;18285;51.330;4.946;2022-11-23T17:40:49;10.15;;;5.38;;
31686;SDS011;18285;51.330;4.946;2022-11-23T18:04:59;8.63;;;4.20;;
31686;SDS011;18285;51.330;4.946;2022-11-23T18:29:10;9.17;;;4.23;;
31686;SDS011;18285;51.330;4.946;2022-11-23T19:17:32;16.87;;;6.13;;
31686;SDS011;18285;51.330;4.946;2022-11-23T19:41:44;14.73;;;5.80;;
31686;SDS011;18285;51.330;4.946;2022-11-23T20:05:56;12.15;;;4.45;;
31686;SDS011;18285;51.330;4.946;2022-11-23T20:30:08;15.27;;;4.35;;
31686;SDS011;18285;51.330;4.946;2022-11-23T20:54:22;7.85;;;3.42;;
31686;SDS011;18285;51.330;4.946;2022-11-23T21:18:32;6.53;;;2.90;;
31686;SDS011;18285;51.330;4.946;2022-11-23T21:42:43;9.55;;;4.68;;
31686;SDS011;18285;51.330;4.946;2022-11-23T22:06:54;11.10;;;4.70;;
31686;SDS011;18285;51.330;4.946;2022-11-23T22:31:04;8.65;;;4.60;;
31686;SDS011;18285;51.330;4.946;2022-11-23T22:55:17;8.57;;;3.50;;
31686;SDS011;18285;51.330;4.946;2022-11-23T23:19:27;7.93;;;3.70;;
31686;SDS011;18285;51.330;4.946;2022-11-23T23:43:38;7.10;;;3.22;;
